createdAt,value
2017-04-16T00:00:46.708Z,13.00
2017-04-16T00:01:47.436Z,12.68
2017-04-16T00:02:47.412Z,11.50
2017-04-16T00:03:47.389Z,14.92
2017-04-16T00:04:47.302Z,13.33
2017-04-16T00:05:47.545Z,13.67
2017-04-16T00:06:47.488Z,14.22
2017-04-16T00:07:47.435Z,14.13
2017-04-16T00:08:47.164Z,12.88
2017-04-16T00:09:47.098Z,15.30
2017-04-16T00:10:47.462Z,13.30
2017-04-16T00:11:47.379Z,13.87
2017-04-16T00:12:47.325Z,12.93
2017-04-16T00:13:47.403Z,14.37
2017-04-16T00:14:48.338Z,13.80
2017-04-16T00:15:48.705Z,13.90
2017-04-16T00:16:48.910Z,16.50
2017-04-16T00:17:48.678Z,13.27
2017-04-16T00:18:48.675Z,13.05
2017-04-16T00:19:48.707Z,13.95
2017-04-16T00:20:48.978Z,13.37
2017-04-16T00:21:49.748Z,16.75
2017-04-16T00:22:49.712Z,20.57
2017-04-16T00:23:50.407Z,14.92
2017-04-16T00:24:50.393Z,11.98
2017-04-16T00:25:50.718Z,14.15
2017-04-16T00:26:50.674Z,13.95
2017-04-16T00:27:50.575Z,11.18
2017-04-16T00:28:50.506Z,12.18
2017-04-16T00:29:50.509Z,14.65
2017-04-16T00:30:50.485Z,11.37
2017-04-16T00:31:50.759Z,15.52
2017-04-16T00:32:50.800Z,13.00
2017-04-16T00:33:50.857Z,13.97
2017-04-16T00:34:50.863Z,12.32
2017-04-16T00:35:50.811Z,11.08
2017-04-16T00:36:51.078Z,10.37
2017-04-16T00:37:51.029Z,9.45
2017-04-16T00:38:51.024Z,13.10
2017-04-16T00:39:51.695Z,13.88
2017-04-16T00:40:51.790Z,9.62
2017-04-16T00:41:52.061Z,11.30
2017-04-16T00:42:52.048Z,11.57
2017-04-16T00:43:52.006Z,13.57
2017-04-16T00:44:51.998Z,11.17
2017-04-16T00:45:51.945Z,10.25
2017-04-16T00:46:52.173Z,14.65
2017-04-16T00:47:52.111Z,13.55
2017-04-16T00:48:52.797Z,17.37
2017-04-16T00:49:52.760Z,13.75
2017-04-16T00:50:52.592Z,12.48
2017-04-16T00:51:53.033Z,13.23
2017-04-16T00:52:53.007Z,15.18
2017-04-16T00:53:52.963Z,11.98
2017-04-16T00:54:53.731Z,12.93
2017-04-16T00:55:53.737Z,16.55
2017-04-16T00:56:54.113Z,15.88
2017-04-16T00:57:54.877Z,12.08
2017-04-16T00:58:54.806Z,16.43
2017-04-16T00:59:54.773Z,18.15
2017-04-16T01:01:00.022Z,13.68
2017-04-16T01:02:05.634Z,16.62
2017-04-16T01:03:09.259Z,17.83
2017-04-16T01:04:09.280Z,14.68
2017-04-16T01:05:09.274Z,15.67
2017-04-16T01:06:09.253Z,17.27
2017-04-16T01:07:09.598Z,17.60
2017-04-16T01:08:09.268Z,21.08
2017-04-16T01:09:09.253Z,16.12
2017-04-16T01:10:09.272Z,14.72
2017-04-16T01:11:09.233Z,12.93
2017-04-16T01:12:09.638Z,18.57
2017-04-16T01:13:10.350Z,16.23
2017-04-16T01:14:10.327Z,19.45
2017-04-16T01:15:10.410Z,20.30
2017-04-16T01:16:10.450Z,18.00
2017-04-16T01:17:10.789Z,21.27
2017-04-16T01:18:10.830Z,20.70
2017-04-16T01:19:10.861Z,19.45
2017-04-16T01:20:10.947Z,20.05
2017-04-16T01:21:10.878Z,23.15
2017-04-16T01:22:11.241Z,23.12
2017-04-16T01:23:15.451Z,26.43
2017-04-16T01:24:15.679Z,21.20
2017-04-16T01:25:16.396Z,24.62
2017-04-16T01:26:17.146Z,26.48
2017-04-16T01:27:17.410Z,24.92
2017-04-16T01:28:17.329Z,26.80
2017-04-16T01:29:18.072Z,24.40
2017-04-16T01:30:18.056Z,26.55
2017-04-16T01:31:17.871Z,30.53
2017-04-16T01:32:19.104Z,31.78
2017-04-16T01:33:19.153Z,30.32
2017-04-16T01:34:19.214Z,27.83
2017-04-16T01:35:19.970Z,26.22
2017-04-16T01:36:19.917Z,26.45
2017-04-16T01:37:20.227Z,29.45
2017-04-16T01:38:20.183Z,33.05
2017-04-16T01:39:20.198Z,25.15
2017-04-16T01:40:20.229Z,31.75
2017-04-16T01:41:20.224Z,33.23
2017-04-16T01:42:20.499Z,27.08
2017-04-16T01:43:21.220Z,27.73
2017-04-16T01:44:22.003Z,27.65
2017-04-16T01:45:22.003Z,27.03
2017-04-16T01:46:21.958Z,27.02
2017-04-16T01:47:23.093Z,25.38
2017-04-16T01:48:23.030Z,24.45
2017-04-16T01:49:23.077Z,26.52
2017-04-16T01:50:23.060Z,28.55
2017-04-16T01:51:22.805Z,29.28
2017-04-16T01:52:23.032Z,26.88
2017-04-16T01:53:23.094Z,29.10
2017-04-16T01:54:22.823Z,28.77
2017-04-16T01:55:23.479Z,27.07
2017-04-16T01:56:23.553Z,25.63
2017-04-16T01:57:24.641Z,28.12
2017-04-16T01:58:24.633Z,28.97
2017-04-16T01:59:24.685Z,37.88
2017-04-16T02:00:24.649Z,24.43
2017-04-16T02:01:24.626Z,26.15
2017-04-16T02:02:24.893Z,26.25
2017-04-16T02:03:24.842Z,25.00
2017-04-16T02:04:24.828Z,36.25
2017-04-16T02:05:25.556Z,27.05
2017-04-16T02:06:25.359Z,27.45
2017-04-16T02:07:29.850Z,27.87
2017-04-16T02:08:29.866Z,30.50
2017-04-16T02:09:30.400Z,31.65
2017-04-16T02:10:30.486Z,26.27
2017-04-16T02:11:30.452Z,27.70
2017-04-16T02:12:30.881Z,25.08
2017-04-16T02:13:30.853Z,28.03
2017-04-16T02:14:30.649Z,29.38
2017-04-16T02:15:30.424Z,32.47
2017-04-16T02:16:30.420Z,25.18
2017-04-16T02:17:31.843Z,29.08
2017-04-16T02:18:31.671Z,27.72
2017-04-16T02:19:31.396Z,32.77
2017-04-16T02:20:31.393Z,28.97
2017-04-16T02:21:31.300Z,30.07
2017-04-16T02:22:31.323Z,28.25
2017-04-16T02:23:31.313Z,28.25
2017-04-16T02:24:31.315Z,28.68
2017-04-16T02:25:31.340Z,38.17
2017-04-16T02:26:31.106Z,38.32
2017-04-16T02:27:31.808Z,26.42
2017-04-16T02:28:32.146Z,25.20
2017-04-16T02:29:32.251Z,28.92
2017-04-16T02:30:32.944Z,24.20
2017-04-16T02:31:32.982Z,28.48
2017-04-16T02:32:33.730Z,30.20
2017-04-16T02:33:34.080Z,29.40
2017-04-16T02:34:34.222Z,28.87
2017-04-16T02:35:34.940Z,30.65
2017-04-16T02:36:35.716Z,28.00
2017-04-16T02:37:35.746Z,29.93
2017-04-16T02:38:36.199Z,28.45
2017-04-16T02:39:37.002Z,25.88
2017-04-16T02:40:36.956Z,29.77
2017-04-16T02:41:36.954Z,26.80
2017-04-16T02:42:36.926Z,27.32
2017-04-16T02:43:37.909Z,22.93
2017-04-16T02:44:37.882Z,23.98
2017-04-16T02:45:37.832Z,29.48
2017-04-16T02:46:37.827Z,29.87
2017-04-16T02:47:37.838Z,28.23
2017-04-16T02:48:38.153Z,29.03
2017-04-16T02:49:38.159Z,25.77
2017-04-16T02:50:38.083Z,26.22
2017-04-16T02:51:38.019Z,24.77
2017-04-16T02:52:38.835Z,27.32
2017-04-16T02:53:39.949Z,23.75
2017-04-16T02:54:39.871Z,27.48
2017-04-16T02:55:39.846Z,27.50
2017-04-16T02:56:39.846Z,28.32
2017-04-16T02:57:39.860Z,27.23
2017-04-16T02:58:40.145Z,24.13
2017-04-16T02:59:40.219Z,23.80
2017-04-16T03:00:40.017Z,24.75
2017-04-16T03:01:40.765Z,28.92
2017-04-16T03:02:40.721Z,27.72
2017-04-16T03:03:41.026Z,26.63
2017-04-16T03:04:40.970Z,21.68
2017-04-16T03:05:41.000Z,26.18
2017-04-16T03:06:40.922Z,27.12
2017-04-16T03:07:40.927Z,21.08
2017-04-16T03:08:41.203Z,26.12
2017-04-16T03:09:41.181Z,24.98
2017-04-16T03:10:41.132Z,27.87
2017-04-16T03:11:41.101Z,28.95
2017-04-16T03:12:41.856Z,24.67
2017-04-16T03:13:42.221Z,23.52
2017-04-16T03:14:42.186Z,31.73
2017-04-16T03:15:42.130Z,26.05
2017-04-16T03:16:42.159Z,24.30
2017-04-16T03:17:42.969Z,29.97
2017-04-16T03:18:43.272Z,27.98
2017-04-16T03:19:43.373Z,24.70
2017-04-16T03:20:43.503Z,23.73
2017-04-16T03:21:43.198Z,29.28
2017-04-16T03:22:43.183Z,24.45
2017-04-16T03:23:43.606Z,21.05
2017-04-16T03:24:44.374Z,26.55
2017-04-16T03:25:44.160Z,23.80
2017-04-16T03:26:44.945Z,24.17
2017-04-16T03:27:44.880Z,28.17
2017-04-16T03:28:46.000Z,29.55
2017-04-16T03:29:45.948Z,30.68
2017-04-16T03:30:45.951Z,33.47
2017-04-16T03:31:45.900Z,36.22
2017-04-16T03:32:45.868Z,30.55
2017-04-16T03:33:46.116Z,34.25
2017-04-16T03:34:46.108Z,29.32
2017-04-16T03:35:46.093Z,34.45
2017-04-16T03:36:45.826Z,36.20
2017-04-16T03:37:46.598Z,32.98
2017-04-16T03:38:46.973Z,30.55
2017-04-16T03:39:46.805Z,41.13
2017-04-16T03:40:46.679Z,38.00
2017-04-16T03:41:46.567Z,35.82
2017-04-16T03:42:46.501Z,35.77
2017-04-16T03:43:46.770Z,34.08
2017-04-16T03:44:46.688Z,34.20
2017-04-16T03:45:46.703Z,34.73
2017-04-16T03:46:46.666Z,43.40
2017-04-16T03:47:46.617Z,37.90
2017-04-16T03:48:46.909Z,35.15
2017-04-16T03:49:46.906Z,38.57
2017-04-16T03:50:46.842Z,41.22
2017-04-16T03:51:46.973Z,37.03
2017-04-16T03:52:47.665Z,36.28
2017-04-16T03:53:47.881Z,41.63
2017-04-16T03:54:47.829Z,34.82
2017-04-16T03:55:47.796Z,50.92
2017-04-16T03:56:47.776Z,37.87
2017-04-16T03:57:47.815Z,40.17
2017-04-16T03:58:47.847Z,36.23
2017-04-16T03:59:47.827Z,31.42
2017-04-16T04:00:47.818Z,38.70
2017-04-16T04:01:47.811Z,30.75
2017-04-16T04:02:47.985Z,35.50
2017-04-16T04:03:48.281Z,30.65
2017-04-16T04:04:48.285Z,34.73
2017-04-16T04:05:48.325Z,36.30
2017-04-16T04:06:48.102Z,27.95
2017-04-16T04:07:48.094Z,31.93
2017-04-16T04:08:49.757Z,38.68
2017-04-16T04:09:49.732Z,33.18
2017-04-16T04:10:49.739Z,32.17
2017-04-16T04:11:49.861Z,39.52
2017-04-16T04:12:49.943Z,31.48
2017-04-16T04:13:50.169Z,29.15
2017-04-16T04:14:50.155Z,28.38
2017-04-16T04:15:50.121Z,29.65
2017-04-16T04:16:54.461Z,31.05
2017-04-16T04:17:54.450Z,28.25
2017-04-16T04:18:54.802Z,32.75
2017-04-16T04:19:54.771Z,29.10
2017-04-16T04:20:54.755Z,27.95
2017-04-16T04:21:54.726Z,27.53
2017-04-16T04:22:54.744Z,30.32
2017-04-16T04:23:55.829Z,31.18
2017-04-16T04:24:55.818Z,23.77
2017-04-16T04:25:55.854Z,26.58
2017-04-16T04:26:55.721Z,29.70
2017-04-16T04:27:55.747Z,32.13
2017-04-16T04:28:55.755Z,26.28
2017-04-16T04:29:55.719Z,33.98
2017-04-16T04:30:55.678Z,25.55
2017-04-16T04:31:55.678Z,25.97
2017-04-16T04:32:55.653Z,24.78
2017-04-16T04:33:56.020Z,27.57
2017-04-16T04:34:56.000Z,31.40
2017-04-16T04:35:55.982Z,27.03
2017-04-16T04:36:56.023Z,24.18
2017-04-16T04:37:55.974Z,25.43
2017-04-16T04:38:56.233Z,26.68
2017-04-16T04:39:56.569Z,24.57
2017-04-16T04:40:56.544Z,23.68
2017-04-16T04:41:56.518Z,24.27
2017-04-16T04:42:56.533Z,25.65
2017-04-16T04:43:59.783Z,30.18
2017-04-16T04:45:00.613Z,32.23
2017-04-16T04:46:00.568Z,24.75
2017-04-16T04:47:00.269Z,29.57
2017-04-16T04:48:00.254Z,26.52
2017-04-16T04:49:00.602Z,25.30
2017-04-16T04:50:00.528Z,27.00
2017-04-16T04:51:00.530Z,26.52
2017-04-16T04:52:00.501Z,27.18
2017-04-16T04:53:00.459Z,32.13
2017-04-16T04:54:00.793Z,28.33
2017-04-16T04:55:01.317Z,23.62
2017-04-16T04:56:01.177Z,29.88
2017-04-16T04:57:01.212Z,26.35
2017-04-16T04:58:01.157Z,26.30
2017-04-16T04:59:01.465Z,22.38
2017-04-16T05:00:01.457Z,27.30
2017-04-16T05:01:01.424Z,25.93
2017-04-16T05:02:02.151Z,26.47
2017-04-16T05:03:02.068Z,25.00
2017-04-16T05:04:02.324Z,29.83
2017-04-16T05:05:02.299Z,27.25
2017-04-16T05:06:02.251Z,28.72
2017-04-16T05:07:02.214Z,27.40
2017-04-16T05:08:01.952Z,27.47
2017-04-16T05:09:03.021Z,25.52
2017-04-16T05:10:03.024Z,28.18
2017-04-16T05:11:02.952Z,27.55
2017-04-16T05:12:02.651Z,27.17
2017-04-16T05:13:02.669Z,25.38
2017-04-16T05:14:03.098Z,27.97
2017-04-16T05:15:03.049Z,26.40
2017-04-16T05:16:03.036Z,29.28
2017-04-16T05:17:03.067Z,29.75
2017-04-16T05:18:03.074Z,28.53
2017-04-16T05:19:03.346Z,27.50
2017-04-16T05:20:03.050Z,29.13
2017-04-16T05:21:03.120Z,32.47
2017-04-16T05:22:03.048Z,30.17
2017-04-16T05:23:03.037Z,32.87
2017-04-16T05:24:03.024Z,25.17
2017-04-16T05:25:02.962Z,30.23
2017-04-16T05:26:03.002Z,28.97
2017-04-16T05:27:03.707Z,24.45
2017-04-16T05:28:03.658Z,28.13
2017-04-16T05:29:03.833Z,30.53
2017-04-16T05:30:04.222Z,28.53
2017-04-16T05:31:04.195Z,30.25
2017-04-16T05:32:04.211Z,28.42
2017-04-16T05:33:04.236Z,30.73
2017-04-16T05:34:04.201Z,24.67
2017-04-16T05:35:04.595Z,27.28
2017-04-16T05:36:05.354Z,27.80
2017-04-16T05:37:05.304Z,25.37
2017-04-16T05:38:05.447Z,28.33
2017-04-16T05:39:05.864Z,25.53
2017-04-16T05:40:06.236Z,23.60
2017-04-16T05:41:06.165Z,22.80
2017-04-16T05:42:06.125Z,23.88
2017-04-16T05:43:06.174Z,22.00
2017-04-16T05:44:06.194Z,30.15
2017-04-16T05:45:07.151Z,29.22
2017-04-16T05:46:07.118Z,24.62
2017-04-16T05:47:07.120Z,25.28
2017-04-16T05:48:07.097Z,26.22
2017-04-16T05:49:07.862Z,43.30
2017-04-16T05:50:08.187Z,27.03
2017-04-16T05:51:08.181Z,29.72
2017-04-16T05:52:08.892Z,25.98
2017-04-16T05:53:08.909Z,31.42
2017-04-16T05:54:09.606Z,22.37
2017-04-16T05:55:09.925Z,24.40
2017-04-16T05:56:09.901Z,24.43
2017-04-16T05:57:09.959Z,24.58
2017-04-16T05:58:09.863Z,21.50
2017-04-16T05:59:09.990Z,20.10
2017-04-16T06:00:10.345Z,22.15
2017-04-16T06:01:10.325Z,25.38
2017-04-16T06:02:10.278Z,23.45
2017-04-16T06:03:10.827Z,23.33
2017-04-16T06:04:10.773Z,25.15
2017-04-16T06:05:10.832Z,23.93
2017-04-16T06:06:10.790Z,23.18
2017-04-16T06:07:10.741Z,19.93
2017-04-16T06:08:10.717Z,22.45
2017-04-16T06:09:10.850Z,28.52
2017-04-16T06:10:11.207Z,20.70
2017-04-16T06:11:11.200Z,20.05
2017-04-16T06:12:11.937Z,24.22
2017-04-16T06:13:12.296Z,23.33
2017-04-16T06:14:12.205Z,20.63
2017-04-16T06:15:13.212Z,20.67
2017-04-16T06:16:13.153Z,19.27
2017-04-16T06:17:13.113Z,22.38
2017-04-16T06:18:13.058Z,20.38
2017-04-16T06:19:13.757Z,22.35
2017-04-16T06:20:13.885Z,22.70
2017-04-16T06:21:13.836Z,22.25
2017-04-16T06:22:13.844Z,22.12
2017-04-16T06:23:13.792Z,24.78
2017-04-16T06:24:17.815Z,24.87
2017-04-16T06:25:18.048Z,24.57
2017-04-16T06:26:17.997Z,24.85
2017-04-16T06:27:17.965Z,21.32
2017-04-16T06:28:17.980Z,19.22
2017-04-16T06:29:18.001Z,23.63
2017-04-16T06:30:18.245Z,25.22
2017-04-16T06:31:18.229Z,21.07
2017-04-16T06:32:18.175Z,22.02
2017-04-16T06:34:49.354Z,27.92
2017-04-16T06:35:49.712Z,22.17
2017-04-16T06:36:49.718Z,30.57
2017-04-16T06:37:50.477Z,25.47
2017-04-16T06:38:50.436Z,25.23
2017-04-16T06:39:51.150Z,24.17
2017-04-16T06:40:51.285Z,24.43
2017-04-16T06:41:51.225Z,26.08
2017-04-16T06:42:51.208Z,27.70
2017-04-16T06:43:51.141Z,28.30
2017-04-16T06:44:51.110Z,26.73
2017-04-16T06:45:51.120Z,23.57
2017-04-16T06:46:51.415Z,26.47
2017-04-16T06:47:51.384Z,26.67
2017-04-16T06:48:51.415Z,26.43
2017-04-16T06:49:51.390Z,28.57
2017-04-16T06:50:51.408Z,26.53
2017-04-16T06:51:51.633Z,24.88
2017-04-16T06:52:51.640Z,25.43
2017-04-16T06:53:51.596Z,25.93
2017-04-16T06:54:51.526Z,23.27
2017-04-16T06:55:51.501Z,24.72
2017-04-16T06:56:51.785Z,28.80
2017-04-16T06:57:52.493Z,29.70
2017-04-16T06:58:52.591Z,26.02
2017-04-16T06:59:52.589Z,23.12
2017-04-16T07:00:52.597Z,30.62
2017-04-16T07:01:52.927Z,28.55
2017-04-16T07:02:52.883Z,25.28
2017-04-16T07:03:58.241Z,27.67
2017-04-16T07:04:58.884Z,27.07
2017-04-16T07:05:58.941Z,29.20
2017-04-16T07:06:58.952Z,27.18
2017-04-16T07:07:58.917Z,30.22
2017-04-16T07:08:58.975Z,28.78
2017-04-16T07:09:58.913Z,26.82
2017-04-16T07:10:58.851Z,30.42
2017-04-16T07:11:59.213Z,30.60
2017-04-16T07:12:59.224Z,28.20
2017-04-16T07:13:59.234Z,27.95
2017-04-16T07:14:59.200Z,26.85
2017-04-16T07:15:59.142Z,27.80
2017-04-16T07:16:59.448Z,29.53
2017-04-16T07:17:59.434Z,33.13
2017-04-16T07:18:59.453Z,26.93
2017-04-16T07:19:59.497Z,23.22
2017-04-16T07:21:00.329Z,29.83
2017-04-16T07:22:01.539Z,26.17
2017-04-16T07:23:01.510Z,30.15
2017-04-16T07:24:01.453Z,29.23
2017-04-16T07:25:01.450Z,29.62
2017-04-16T07:26:01.446Z,27.47
2017-04-16T07:27:01.493Z,29.43
2017-04-16T07:28:01.427Z,32.13
2017-04-16T07:29:01.415Z,35.47
2017-04-16T07:30:01.126Z,31.45
2017-04-16T07:31:01.114Z,25.77
2017-04-16T07:32:01.405Z,26.77
2017-04-16T07:33:02.114Z,27.45
2017-04-16T07:34:02.102Z,28.10
2017-04-16T07:35:02.012Z,27.57
2017-04-16T07:36:01.965Z,28.12
2017-04-16T07:37:02.240Z,24.33
2017-04-16T07:38:02.166Z,33.72
2017-04-16T07:39:02.822Z,34.28
2017-04-16T07:40:02.787Z,30.62
2017-04-16T07:41:03.461Z,27.05
2017-04-16T07:42:04.523Z,26.85
2017-04-16T07:43:04.509Z,33.52
2017-04-16T07:44:04.255Z,24.53
2017-04-16T07:45:04.990Z,28.48
2017-04-16T07:46:04.951Z,28.53
2017-04-16T07:47:05.368Z,29.52
2017-04-16T07:48:05.330Z,30.95
2017-04-16T07:49:05.293Z,28.62
2017-04-16T07:50:05.218Z,33.82
2017-04-16T07:51:05.205Z,29.27
2017-04-16T07:52:05.465Z,33.80
2017-04-16T07:53:05.441Z,30.97
2017-04-16T07:54:06.134Z,28.82
2017-04-16T07:55:06.230Z,32.67
2017-04-16T07:57:37.695Z,31.35
2017-04-16T07:58:37.658Z,32.55
2017-04-16T07:59:37.364Z,30.70
2017-04-16T08:00:37.181Z,33.10
2017-04-16T08:01:36.932Z,33.15
2017-04-16T08:02:36.976Z,30.85
2017-04-16T08:03:37.238Z,39.90
2017-04-16T08:04:37.211Z,39.65
2017-04-16T08:05:37.640Z,147.08
2017-04-16T08:06:37.627Z,52.93
2017-04-16T08:07:37.619Z,47.72
2017-04-16T08:08:37.643Z,36.37
2017-04-16T08:09:38.407Z,35.88
2017-04-16T08:10:38.350Z,33.25
2017-04-16T08:11:39.020Z,31.25
2017-04-16T08:12:39.063Z,31.28
2017-04-16T08:13:39.315Z,35.08
2017-04-16T08:14:39.354Z,31.70
2017-04-16T08:15:39.322Z,33.52
2017-04-16T08:16:39.372Z,31.00
2017-04-16T08:17:39.339Z,27.72
2017-04-16T08:18:39.597Z,32.63
2017-04-16T08:19:39.562Z,32.05
2017-04-16T08:20:39.548Z,31.83
2017-04-16T08:21:39.255Z,33.18
2017-04-16T08:22:39.963Z,32.40
2017-04-16T08:23:39.996Z,41.08
2017-04-16T08:24:40.749Z,35.18
2017-04-16T08:25:41.410Z,30.73
2017-04-16T08:26:41.383Z,29.67
2017-04-16T08:27:41.074Z,39.00
2017-04-16T08:28:41.461Z,36.22
2017-04-16T08:29:41.458Z,31.65
2017-04-16T08:30:41.197Z,32.82
2017-04-16T08:31:41.110Z,32.25
2017-04-16T08:32:40.849Z,33.22
2017-04-16T08:33:40.856Z,58.37
2017-04-16T08:34:41.194Z,42.30
2017-04-16T08:35:41.155Z,48.20
2017-04-16T08:36:41.624Z,49.05
2017-04-16T08:37:41.671Z,37.33
2017-04-16T08:38:41.714Z,34.30
2017-04-16T08:39:42.152Z,34.32
2017-04-16T08:40:42.094Z,40.18
2017-04-16T08:41:42.041Z,32.75
2017-04-16T08:42:41.999Z,36.07
2017-04-16T08:43:41.956Z,30.98
2017-04-16T08:44:41.924Z,34.22
2017-04-16T08:45:41.875Z,34.50
2017-04-16T08:46:42.560Z,36.07
2017-04-16T08:47:42.517Z,39.22
2017-04-16T08:48:42.501Z,37.92
2017-04-16T08:49:42.472Z,39.50
2017-04-16T08:50:42.747Z,35.32
2017-04-16T08:51:43.229Z,35.30
2017-04-16T08:52:43.969Z,33.63
2017-04-16T08:53:43.810Z,38.42
2017-04-16T08:54:43.593Z,38.58
2017-04-16T08:55:44.723Z,33.65
2017-04-16T08:56:45.445Z,35.83
2017-04-16T08:57:46.172Z,40.35
2017-04-16T08:58:46.363Z,39.42
2017-04-16T08:59:46.262Z,34.43
2017-04-16T09:00:46.567Z,41.63
2017-04-16T09:01:46.533Z,32.60
2017-04-16T09:02:46.473Z,37.07
2017-04-16T09:03:47.307Z,36.32
2017-04-16T09:04:47.260Z,35.28
2017-04-16T09:05:47.444Z,39.40
2017-04-16T09:06:48.625Z,33.47
2017-04-16T09:07:49.485Z,33.03
2017-04-16T09:08:49.442Z,41.35
2017-04-16T09:09:49.329Z,38.02
2017-04-16T09:10:49.602Z,37.42
2017-04-16T09:11:49.586Z,35.70
2017-04-16T09:12:49.639Z,39.18
2017-04-16T09:13:50.444Z,33.60
2017-04-16T09:14:51.167Z,33.10
2017-04-16T09:15:51.465Z,40.73
2017-04-16T09:16:51.632Z,38.67
2017-04-16T09:17:51.639Z,37.07
2017-04-16T09:18:51.571Z,35.18
2017-04-16T09:19:52.269Z,35.63
2017-04-16T09:20:52.640Z,36.98
2017-04-16T09:21:52.590Z,34.95
2017-04-16T09:22:52.528Z,33.68
2017-04-16T09:23:52.457Z,34.32
2017-04-16T09:24:52.423Z,33.82
2017-04-16T09:25:53.490Z,34.57
2017-04-16T09:26:53.448Z,38.30
2017-04-16T09:27:53.416Z,37.37
2017-04-16T09:28:54.218Z,35.67
2017-04-16T09:29:54.216Z,36.63
2017-04-16T09:30:54.523Z,33.90
2017-04-16T09:31:54.570Z,35.30
2017-04-16T09:32:54.265Z,32.92
2017-04-16T09:33:54.221Z,31.88
2017-04-16T09:34:54.190Z,35.40
2017-04-16T09:35:54.565Z,39.12
2017-04-16T09:36:54.587Z,36.75
2017-04-16T09:37:55.300Z,29.27
2017-04-16T09:38:55.253Z,29.48
2017-04-16T09:39:55.217Z,23.68
2017-04-16T09:40:55.544Z,20.17
2017-04-16T09:41:56.252Z,24.13
2017-04-16T09:42:56.236Z,21.50
2017-04-16T09:43:56.895Z,18.33
2017-04-16T09:44:57.602Z,19.45
2017-04-16T09:45:57.877Z,20.12
2017-04-16T09:46:58.640Z,21.23
2017-04-16T09:47:59.900Z,23.58
2017-04-16T09:48:59.956Z,22.95
2017-04-16T09:49:59.914Z,22.05
2017-04-16T09:51:00.205Z,22.63
2017-04-16T09:52:01.412Z,19.58
2017-04-16T09:53:01.352Z,18.43
2017-04-16T09:54:01.311Z,19.33
2017-04-16T09:55:01.365Z,23.28
2017-04-16T09:56:01.669Z,18.12
2017-04-16T09:57:02.448Z,20.18
2017-04-16T09:58:02.408Z,16.63
2017-04-16T09:59:02.364Z,18.23
2017-04-16T10:00:03.129Z,18.27
2017-04-16T10:01:03.527Z,19.12
2017-04-16T10:02:03.475Z,24.42
2017-04-16T10:03:03.466Z,18.95
2017-04-16T10:04:03.414Z,17.42
2017-04-16T10:05:03.442Z,19.95
2017-04-16T10:06:03.713Z,20.73
2017-04-16T10:07:03.698Z,16.77
2017-04-16T10:08:03.628Z,17.90
2017-04-16T10:09:03.710Z,20.22
2017-04-16T10:10:03.673Z,18.55
2017-04-16T10:11:03.957Z,16.52
2017-04-16T10:12:03.905Z,19.62
2017-04-16T10:13:03.837Z,16.90
2017-04-16T10:14:03.800Z,18.77
2017-04-16T10:15:03.791Z,15.10
2017-04-16T10:16:03.762Z,15.18
2017-04-16T10:17:04.122Z,17.28
2017-04-16T10:18:04.045Z,19.20
2017-04-16T10:19:04.027Z,20.55
2017-04-16T10:20:04.076Z,17.27
2017-04-16T10:21:04.801Z,17.68
2017-04-16T10:22:05.166Z,17.77
2017-04-16T10:23:05.900Z,19.68
2017-04-16T10:24:05.865Z,17.25
2017-04-16T10:25:05.866Z,17.92
2017-04-16T10:26:05.798Z,22.72
2017-04-16T10:27:06.147Z,19.35
2017-04-16T10:28:06.138Z,21.78
2017-04-16T10:29:06.092Z,18.17
2017-04-16T10:30:06.112Z,16.57
2017-04-16T10:31:07.808Z,18.73
2017-04-16T10:32:10.405Z,22.97
2017-04-16T10:33:12.390Z,18.25
2017-04-16T10:34:16.172Z,18.00
2017-04-16T10:35:18.245Z,15.92
2017-04-16T10:36:20.428Z,15.93
2017-04-16T10:37:23.709Z,18.43
2017-04-16T10:38:23.837Z,18.70
2017-04-16T10:39:24.420Z,17.67
2017-04-16T10:40:24.511Z,17.25
2017-04-16T10:41:24.967Z,16.67
2017-04-16T10:42:35.050Z,19.73
2017-04-16T10:43:35.025Z,16.25
2017-04-16T10:44:35.821Z,18.45
2017-04-16T10:45:35.785Z,18.48
2017-04-16T10:46:41.016Z,18.83
2017-04-16T10:47:41.293Z,17.08
2017-04-16T10:48:42.798Z,15.62
2017-04-16T10:49:43.044Z,15.32
2017-04-16T10:50:43.980Z,15.32
2017-04-16T10:51:44.198Z,13.03
2017-04-16T10:52:45.295Z,17.15
2017-04-16T10:53:45.991Z,13.12
2017-04-16T10:54:45.989Z,15.05
2017-04-16T10:55:45.943Z,12.63
2017-04-16T10:56:45.968Z,15.82
2017-04-16T10:57:47.083Z,22.07
2017-04-16T10:58:47.027Z,14.47
2017-04-16T10:59:47.061Z,15.68
2017-04-16T11:00:47.282Z,12.55
2017-04-16T11:01:47.981Z,14.57
2017-04-16T11:02:48.222Z,16.22
2017-04-16T11:03:49.024Z,15.18
2017-04-16T11:04:49.056Z,15.95
2017-04-16T11:05:49.109Z,14.78
2017-04-16T11:06:49.064Z,14.33
2017-04-16T11:07:49.331Z,14.98
2017-04-16T11:08:49.326Z,14.82
2017-04-16T11:09:49.362Z,16.93
2017-04-16T11:10:49.321Z,13.33
2017-04-16T11:11:49.298Z,16.97
2017-04-16T11:12:50.330Z,13.77
2017-04-16T11:13:50.067Z,16.55
2017-04-16T11:14:49.763Z,23.50
2017-04-16T11:15:49.779Z,16.75
2017-04-16T11:16:49.724Z,16.63
2017-04-16T11:17:49.696Z,18.87
2017-04-16T11:18:50.157Z,21.60
2017-04-16T11:19:50.838Z,14.87
2017-04-16T11:20:50.845Z,13.65
2017-04-16T11:21:50.810Z,13.25
2017-04-16T11:22:50.867Z,13.78
2017-04-16T11:23:51.221Z,13.57
2017-04-16T11:24:51.201Z,16.63
2017-04-16T11:25:51.157Z,15.23
2017-04-16T11:26:51.921Z,18.78
2017-04-16T11:27:51.870Z,16.20
2017-04-16T11:28:51.900Z,12.70
2017-04-16T11:29:51.935Z,17.78
2017-04-16T11:30:51.915Z,18.67
2017-04-16T11:31:51.947Z,15.00
2017-04-16T11:32:52.003Z,16.03
2017-04-16T11:33:52.339Z,14.93
2017-04-16T11:34:53.065Z,18.70
2017-04-16T11:35:53.018Z,15.37
2017-04-16T11:36:53.003Z,13.33
2017-04-16T11:37:52.992Z,15.17
2017-04-16T11:38:53.360Z,17.38
2017-04-16T11:39:53.328Z,15.95
2017-04-16T11:40:53.293Z,15.02
2017-04-16T11:41:53.300Z,15.43
2017-04-16T11:42:54.027Z,13.23
2017-04-16T11:43:55.148Z,15.37
2017-04-16T11:44:55.176Z,13.88
2017-04-16T11:45:55.308Z,18.02
2017-04-16T11:46:55.309Z,13.17
2017-04-16T11:47:55.266Z,15.12
2017-04-16T11:48:55.675Z,13.77
2017-04-16T11:49:55.656Z,14.80
2017-04-16T11:50:55.411Z,12.08
2017-04-16T11:51:56.093Z,14.42
2017-04-16T11:52:56.753Z,14.50
2017-04-16T11:53:56.866Z,14.58
2017-04-16T11:54:56.857Z,11.23
2017-04-16T11:55:57.619Z,14.53
2017-04-16T11:56:57.596Z,13.03
2017-04-16T11:57:57.586Z,17.35
2017-04-16T11:59:00.460Z,14.87
2017-04-16T12:00:00.480Z,10.90
2017-04-16T12:01:00.511Z,13.13
2017-04-16T12:02:00.440Z,13.10
2017-04-16T12:03:00.430Z,13.35
2017-04-16T12:04:00.611Z,14.65
2017-04-16T12:06:31.549Z,15.17
2017-04-16T12:07:31.567Z,11.83
2017-04-16T12:08:31.573Z,13.80
2017-04-16T12:09:31.665Z,17.68
2017-04-16T12:10:31.609Z,10.92
2017-04-16T12:11:31.594Z,18.37
2017-04-16T12:12:31.523Z,13.47
2017-04-16T12:13:31.690Z,12.17
2017-04-16T12:14:32.795Z,10.75
2017-04-16T12:15:32.759Z,15.62
2017-04-16T12:18:03.616Z,13.78
2017-04-16T12:19:03.555Z,12.02
2017-04-16T12:20:03.816Z,12.28
2017-04-16T12:21:03.830Z,11.62
2017-04-16T12:22:04.553Z,12.08
2017-04-16T12:23:04.515Z,10.95
2017-04-16T12:24:04.202Z,14.58
2017-04-16T12:25:04.589Z,11.68
2017-04-16T12:26:04.597Z,9.53
2017-04-16T12:27:04.436Z,10.52
2017-04-16T12:28:04.953Z,10.28
2017-04-16T12:29:04.741Z,12.37
2017-04-16T12:30:04.836Z,14.25
2017-04-16T12:31:04.838Z,12.82
2017-04-16T12:32:04.828Z,9.40
2017-04-16T12:33:04.757Z,14.47
2017-04-16T12:34:04.479Z,9.78
2017-04-16T12:35:05.473Z,9.78
2017-04-16T12:36:05.473Z,10.10
2017-04-16T12:37:05.478Z,11.75
2017-04-16T12:38:05.414Z,12.53
2017-04-16T12:39:06.185Z,9.80
2017-04-16T12:40:06.543Z,10.10
2017-04-16T12:41:06.469Z,15.17
2017-04-16T12:42:06.375Z,9.62
2017-04-16T12:44:37.628Z,11.27
2017-04-16T12:45:37.898Z,9.67
2017-04-16T12:46:37.896Z,11.45
2017-04-16T12:47:37.834Z,11.52
2017-04-16T12:48:37.806Z,11.05
2017-04-16T12:49:37.895Z,11.02
2017-04-16T12:50:40.278Z,12.65
2017-04-16T12:51:40.347Z,11.43
2017-04-16T12:52:40.299Z,19.32
2017-04-16T12:53:40.243Z,10.90
2017-04-16T12:54:40.275Z,14.53
2017-04-16T12:55:40.712Z,11.73
2017-04-16T12:56:40.701Z,12.42
2017-04-16T12:57:40.678Z,17.30
2017-04-16T12:58:40.637Z,18.50
2017-04-16T13:01:11.361Z,11.05
2017-04-16T13:02:11.437Z,10.78
2017-04-16T13:03:11.476Z,11.15
2017-04-16T13:04:11.211Z,12.18
2017-04-16T13:05:11.946Z,11.43